METAR AND TAF INFORMATION
METAR FOR DTTA
ADDS - METARS form results

(0723 UTC 26 March 2019)
Data provider http://aviationweather.gov/metar/data/
 
METAR text: DTTA 260700Z 17007KT CAVOK 14/07 Q1015
Conditions at: DTTA (TUNIS/CARTHAGE , TN) observed 0700 UTC 26 March 2019
Temperature: 14.0°C (57°F)
Dewpoint: 7.0°C (45°F) [RH = 63%]
Pressure (altimeter): 29.97 inches Hg (1015.0 mb)
Winds: from the S (170 degrees) at 8 MPH (7 knots; 3.6 m/s)
Visibility: 6 or more miles (10+ km)
Ceiling: ceiling and visibility are OK
Clouds: unknown
Weather: no significant weather observed at this time

METAR text: DTTA 260630Z 21004KT 180V250 9999 FEW026 13/07 Q1015
Conditions at: DTTA (TUNIS/CARTHAGE , TN) observed 0630 UTC 26 March 2019
Temperature: 13.0°C (55°F)
Dewpoint: 7.0°C (45°F) [RH = 67%]
Pressure (altimeter): 29.97 inches Hg (1015.0 mb)
Winds: from the SSW (210 degrees) at 5 MPH (4 knots; 2.1 m/s)
Visibility: 6 or more miles (10+ km)
Ceiling: at least 12,000 feet AGL
Clouds: few clouds at 2600 feet AGL
Weather: no significant weather observed at this time

Forecast for: DTTA (TUNIS/CARTHAGE , TN)
Text: TAF DTTA 260500Z 2606/2706 24010KT 9999 FEW026
Forecast period: 0600 UTC 26 March 2019 to 0600 UTC 27 March 2019
Forecast type: FROM: standard forecast or significant change
Winds: from the WSW (240 degrees) at 12 MPH (10 knots; 5.1 m/s)
Visibility: 6 or more miles 10+ km)
Ceiling: at least 12,000 feet AGL
Clouds: few clouds at 2600 feet AGL
Weather: no significant weather forecast for this period
Text: TEMPO 2613/2620 28020KT
Forecast period: 1300 to 2000 UTC 26 March 2019
Forecast type: TEMPORARY: The following changes expected for less than half the time period
Winds: from the W (280 degrees) at 23 MPH (20 knots; 10.3 m/s)
Visibility: missing
Ceiling: unknown
Clouds: missing
Weather: no significant weather forecast for this period

 AIRPORT MAP

 RUNWAY INFORMATION
Runway 01 Runway length 10499 ft Runway width 148 ft
Runway elevation 13 ft Runway displaced threshold 0 ft Runway heading 12
Runway 19 Runway length 10499 ft Runway width 148 ft
Runway elevation 21 ft Runway displaced threshold 0 ft Runway heading 192
Runway 11 Runway length 9318 ft Runway width 148 ft
Runway elevation 19 ft Runway displaced threshold 0 ft Runway heading 113
Runway 29 Runway length 9318 ft Runway width 148 ft
Runway elevation 11 ft Runway displaced threshold 657 ft Runway heading 293

 AIRPORT FREQUENCIES
Type APP Name TUNIS APP Frequency 121.2 MHZ
Type ATIS Name TUNIS ATIS Frequency 118.675 MHZ
Type GND Name TUNIS GND Frequency 121.9 MHZ
Type TWR Name TUNIS TWR Frequency 118.1 MHZ

 AIRPORT NEAR NAVIGATION AIDS
Type NDB Name Tunis Frequency 386 KHZ
Type NDB Name Tunis Frequency 325 KHZ
Type VOR-DME Name Tunis Frequency 116500 KHZ



Powered by Virtual Airlines Manager [v2.6.2]